Time;durP1;ratioP1;P1;durP2;ratioP2;P2;SDS_P1;SDS_P2;PMS_P1;PMS_P2;Temp;Humidity;BMP_temperature;BMP_pressure;BME280_temperature;BME280_humidity;BME280_pressure;Samples;Min_cycle;Max_cycle;Signal;HPM_P1;HPM_P2
2023/09/17 00:00:37;;;;;;;4.72;4.43;;;14.50;46.50;;;;;;5016689;28;20045;-63
2023/09/17 00:03:03;;;;;;;4.40;4.10;;;14.20;53.30;;;;;;5034406;28;20048;-64
2023/09/17 00:05:31;;;;;;;4.80;4.45;;;14.20;55.70;;;;;;5015614;28;20049;-64
2023/09/17 00:07:57;;;;;;;4.80;4.40;;;14.20;54.20;;;;;;5000109;28;20119;-64
2023/09/17 00:10:23;;;;;;;4.38;4.07;;;14.20;62.50;;;;;;5034128;28;20045;-64
2023/09/17 00:12:53;;;;;;;4.32;4.03;;;14.20;61.60;;;;;;5016118;28;20497;-66
2023/09/17 00:15:19;;;;;;;4.38;4.07;;;14.20;57.30;;;;;;5033829;28;20041;-64
2023/09/17 00:17:45;;;;;;;4.60;4.20;;;14.20;62.20;;;;;;5015963;28;20409;-64
2023/09/17 00:20:11;;;;;;;4.50;4.20;;;14.20;61.70;;;;;;5016279;28;20041;-64
2023/09/17 00:22:38;;;;;;;4.93;4.45;;;14.00;69.50;;;;;;5015857;28;20460;-64
2023/09/17 00:25:05;;;;;;;5.20;4.85;;;16.20;67.50;;;;;;5033869;28;20041;-64
2023/09/17 00:27:32;;;;;;;4.68;4.30;;;14.10;73.60;;;;;;5033833;28;20565;-64
2023/09/17 00:29:57;;;;;;;5.18;4.85;;;14.20;69.10;;;;;;5033694;28;20119;-64
2023/09/17 00:32:23;;;;;;;4.70;4.40;;;14.10;68.00;;;;;;5015779;28;20049;-65
2023/09/17 00:34:49;;;;;;;5.28;4.90;;;14.20;66.10;;;;;;5033597;28;20052;-65
2023/09/17 00:37:14;;;;;;;5.82;5.32;;;14.20;66.90;;;;;;5015368;28;20029;-65
2023/09/17 00:39:40;;;;;;;4.97;4.57;;;14.20;69.40;;;;;;5033579;28;20044;-65
2023/09/17 00:42:06;;;;;;;5.10;4.70;;;14.10;67.70;;;;;;5015849;28;20468;-65
2023/09/17 00:44:32;;;;;;;4.72;4.43;;;14.20;67.80;;;;;;5033162;28;20508;-65
2023/09/17 00:47:00;;;;;;;5.03;4.63;;;15.10;68.30;;;;;;5015523;28;20076;-67
2023/09/17 00:49:27;;;;;;;4.65;4.35;;;14.20;69.60;;;;;;5033389;28;20385;-65
2023/09/17 00:51:53;;;;;;;4.72;4.43;;;14.10;71.60;;;;;;5015452;28;20049;-65
2023/09/17 00:54:25;;;;;;;4.75;4.45;;;14.10;80.60;;;;;;5015370;28;20043;-65
2023/09/17 00:56:51;;;;;;;4.63;4.32;;;14.10;79.10;;;;;;5015332;28;20052;-65
2023/09/17 00:59:17;;;;;;;5.78;5.38;;;14.10;86.90;;;;;;5033265;28;20397;-65
2023/09/17 01:01:43;;;;;;;5.30;4.95;;;14.10;83.50;;;;;;5015325;28;20049;-65
2023/09/17 01:04:11;;;;;;;5.25;4.72;;;14.20;80.90;;;;;;5033005;28;20064;-65
2023/09/17 01:06:38;;;;;;;5.75;5.35;;;14.20;75.00;;;;;;5033156;28;20528;-65
2023/09/17 01:09:05;;;;;;;5.28;4.88;;;14.70;71.20;;;;;;5033228;28;20393;-65
2023/09/17 01:11:31;;;;;;;5.28;4.88;;;14.20;74.60;;;;;;5015414;28;20366;-65
2023/09/17 01:14:10;;;;;;;5.47;5.07;;;14.10;78.80;;;;;;5015681;28;20064;-65
2023/09/17 01:16:35;;;;;;;4.45;4.15;;;14.10;77.20;;;;;;5032696;28;20056;-64
2023/09/17 01:19:03;;;;;;;5.70;5.25;;;14.10;78.60;;;;;;5015202;28;20413;-66
2023/09/17 01:21:38;;;;;;;5.22;4.90;;;14.90;76.20;;;;;;5032994;28;20037;-68
2023/09/17 01:24:36;;;;;;;5.57;5.18;;;14.10;70.00;;;;;;5015042;28;20095;-67
2023/09/17 01:27:03;;;;;;;5.53;5.13;;;14.10;77.50;;;;;;5015319;28;20392;-67
2023/09/17 01:29:37;;;;;;;5.78;5.30;;;14.20;76.10;;;;;;5032849;28;20048;-67
2023/09/17 01:32:04;;;;;;;6.13;5.72;;;14.10;72.90;;;;;;5015242;28;20038;-67
2023/09/17 01:34:32;;;;;;;6.38;5.88;;;14.10;72.30;;;;;;5032645;28;20055;-66
2023/09/17 01:37:02;;;;;;;5.65;5.25;;;13.90;69.60;;;;;;5015443;28;20048;-67
2023/09/17 01:39:33;;;;;;;5.85;5.45;;;14.40;75.80;;;;;;5032891;28;20053;-67
2023/09/17 01:42:04;;;;;;;5.90;5.40;;;14.00;82.80;;;;;;5032841;28;20044;-67
2023/09/17 01:44:30;;;;;;;5.60;5.20;;;14.00;84.20;;;;;;5032876;28;20049;-67
2023/09/17 01:47:00;;;;;;;5.50;5.10;;;14.00;86.60;;;;;;5032807;28;20048;-67
2023/09/17 01:49:32;;;;;;;5.87;5.47;;;14.00;85.20;;;;;;5035299;28;20042;-67
2023/09/17 01:51:58;;;;;;;5.93;5.43;;;14.00;88.50;;;;;;5036732;28;20128;-66
2023/09/17 01:54:24;;;;;;;5.70;5.30;;;14.00;89.80;;;;;;5018971;28;20519;-66
2023/09/17 01:56:49;;;;;;;5.60;5.20;;;14.00;90.80;;;;;;5018894;28;20050;-66
2023/09/17 01:59:15;;;;;;;5.60;5.20;;;14.00;91.70;;;;;;5036260;28;20041;-67
2023/09/17 02:01:42;;;;;;;5.60;5.18;;;14.00;91.70;;;;;;5036503;28;20040;-66
2023/09/17 02:04:25;;;;;;;5.90;5.50;;;14.00;91.90;;;;;;5036474;28;20059;-67
2023/09/17 02:06:53;;;;;;;5.55;5.15;;;14.00;93.20;;;;;;5036470;28;20029;-67
2023/09/17 02:09:21;;;;;;;5.25;4.85;;;14.10;94.00;;;;;;5035956;28;20056;-67
2023/09/17 02:11:47;;;;;;;5.88;5.38;;;14.10;93.70;;;;;;5018351;28;20049;-66
2023/09/17 02:14:13;;;;;;;5.32;4.93;;;14.10;93.90;;;;;;5001560;28;20111;-66
2023/09/17 02:16:38;;;;;;;4.93;4.63;;;14.10;94.90;;;;;;5035918;28;20053;-66
2023/09/17 02:19:04;;;;;;;5.88;5.47;;;14.20;94.60;;;;;;5036259;28;20068;-66
2023/09/17 02:21:30;;;;;;;6.15;5.70;;;14.20;94.90;;;;;;5036306;28;20482;-66
2023/09/17 02:23:55;;;;;;;5.95;5.55;;;14.20;94.40;;;;;;5018154;28;20042;-66
2023/09/17 02:26:21;;;;;;;4.88;4.57;;;14.30;94.30;;;;;;5035877;28;20400;-66
2023/09/17 02:28:47;;;;;;;5.63;5.22;;;14.30;94.30;;;;;;5035991;28;20049;-66
2023/09/17 02:31:16;;;;;;;6.40;5.90;;;14.40;94.60;;;;;;5036256;28;20587;-63
2023/09/17 02:33:44;;;;;;;5.85;5.45;;;14.40;94.80;;;;;;5036067;28;20098;-64
2023/09/17 02:36:13;;;;;;;5.85;5.45;;;14.50;95.00;;;;;;5018304;28;20501;-63
2023/09/17 02:38:41;;;;;;;5.90;5.50;;;14.50;95.00;;;;;;5017823;28;20050;-64
2023/09/17 02:41:07;;;;;;;5.78;5.28;;;15.60;95.00;;;;;;5035618;28;20037;-63
2023/09/17 02:43:36;;;;;;;5.07;4.68;;;14.50;95.10;;;;;;5017784;28;20045;-64
2023/09/17 02:46:05;;;;;;;5.53;5.03;;;14.50;95.30;;;;;;5017735;28;20048;-64
2023/09/17 02:48:34;;;;;;;6.05;5.65;;;14.50;94.30;;;;;;5017757;28;20044;-64
2023/09/17 02:51:02;;;;;;;5.75;5.35;;;14.90;93.70;;;;;;5035364;28;20042;-63
2023/09/17 02:53:38;;;;;;;5.90;5.50;;;14.60;93.20;;;;;;5035428;28;20459;-63
2023/09/17 02:56:07;;;;;;;5.90;5.50;;;14.60;92.90;;;;;;5035653;28;20033;-64
2023/09/17 02:58:34;;;;;;;5.07;4.68;;;16.00;93.50;;;;;;5035276;28;20408;-64
2023/09/17 03:01:01;;;;;;;5.28;4.88;;;14.60;92.70;;;;;;5000525;28;20053;-64
2023/09/17 03:03:26;;;;;;;5.47;5.07;;;14.60;92.30;;;;;;5035373;28;20081;-63
2023/09/17 03:05:53;;;;;;;5.60;5.20;;;14.60;91.90;;;;;;5035436;28;20493;-63
2023/09/17 03:08:19;;;;;;;5.60;5.20;;;16.30;92.50;;;;;;5035576;28;20061;-64
2023/09/17 03:10:45;;;;;;;5.38;4.97;;;14.60;93.60;;;;;;5017364;28;20613;-64
2023/09/17 03:13:12;;;;;;;5.70;5.30;;;14.60;93.80;;;;;;5017649;28;20041;-63
2023/09/17 03:15:38;;;;;;;5.15;4.75;;;14.60;95.50;;;;;;5017161;28;20058;-62
2023/09/17 03:18:04;;;;;;;5.47;5.07;;;14.10;95.80;;;;;;5017275;28;20103;-62
2023/09/17 03:20:33;;;;;;;5.82;5.43;;;14.60;96.20;;;;;;5035253;28;20073;-62
2023/09/17 03:23:02;;;;;;;5.25;4.88;;;14.60;96.20;;;;;;5017519;28;20084;-62
2023/09/17 03:25:31;;;;;;;5.78;5.38;;;14.60;96.70;;;;;;5033654;28;20046;-62
2023/09/17 03:28:00;;;;;;;5.82;5.43;;;15.20;97.80;;;;;;5035031;28;20073;-62
2023/09/17 03:30:26;;;;;;;5.00;4.60;;;14.70;99.20;;;;;;5016985;28;20041;-64
2023/09/17 03:32:52;;;;;;;5.18;4.88;;;14.70;99.90;;;;;;5034940;28;20080;-64
2023/09/17 03:35:18;;;;;;;5.43;5.03;;;14.70;99.90;;;;;;5034539;28;20034;-64
2023/09/17 03:37:45;;;;;;;5.32;4.93;;;14.70;99.90;;;;;;5034505;28;20041;-65
2023/09/17 03:40:12;;;;;;;5.75;5.35;;;14.80;99.90;;;;;;5034472;28;20052;-64
2023/09/17 03:42:39;;;;;;;5.57;5.18;;;14.80;99.90;;;;;;5000469;28;20112;-66
2023/09/17 03:45:12;;;;;;;5.93;5.43;;;14.80;99.90;;;;;;5034703;28;20103;-67
2023/09/17 03:47:47;;;;;;;5.70;5.30;;;14.80;99.90;;;;;;5034636;28;20045;-67
2023/09/17 03:50:15;;;;;;;5.68;5.28;;;14.80;99.90;;;;;;5034504;28;20111;-66
2023/09/17 03:52:44;;;;;;;5.30;5.00;;;16.80;99.90;;;;;;5034545;28;20497;-66
2023/09/17 03:55:12;;;;;;;5.05;4.72;;;16.00;99.90;;;;;;5016438;28;20034;-66
2023/09/17 03:57:38;;;;;;;5.57;5.10;;;14.90;99.90;;;;;;5034267;28;20041;-66
2023/09/17 04:00:10;;;;;;;5.70;5.30;;;14.90;99.90;;;;;;5034316;28;20037;-66
2023/09/17 04:02:36;;;;;;;6.03;5.55;;;14.90;99.90;;;;;;5016678;28;20399;-66
2023/09/17 04:05:11;;;;;;;5.47;5.07;;;15.00;99.90;;;;;;5033904;28;20038;-66
2023/09/17 04:07:37;;;;;;;5.45;5.05;;;15.00;99.90;;;;;;5034154;28;20056;-66
2023/09/17 04:10:06;;;;;;;5.35;4.95;;;14.90;99.90;;;;;;5016405;28;20037;-66
2023/09/17 04:12:35;;;;;;;6.00;5.53;;;15.00;99.90;;;;;;5034134;28;20044;-66
2023/09/17 04:15:02;;;;;;;5.90;5.50;;;15.00;99.90;;;;;;5034015;28;20040;-66
2023/09/17 04:17:28;;;;;;;5.28;4.88;;;15.00;99.90;;;;;;5032897;28;20041;-66
2023/09/17 04:19:55;;;;;;;6.00;5.50;;;15.00;99.90;;;;;;5033943;28;20045;-65
2023/09/17 04:22:20;;;;;;;5.55;5.15;;;15.00;99.90;;;;;;5015952;28;20041;-66
2023/09/17 04:24:46;;;;;;;6.20;5.70;;;15.00;99.90;;;;;;5016119;28;20099;-65
2023/09/17 04:27:13;;;;;;;5.70;5.20;;;15.00;99.90;;;;;;5015924;28;20041;-66
2023/09/17 04:29:39;;;;;;;5.72;5.28;;;15.00;99.90;;;;;;5033440;28;20401;-66
2023/09/17 04:32:04;;;;;;;5.53;5.03;;;15.00;99.90;;;;;;5033487;28;20103;-66
2023/09/17 04:34:30;;;;;;;5.75;5.28;;;15.00;99.90;;;;;;5033656;28;20034;-66
2023/09/17 04:36:58;;;;;;;5.63;5.22;;;15.60;99.90;;;;;;4999360;28;20592;-66
2023/09/17 04:39:27;;;;;;;5.75;5.35;;;14.90;99.90;;;;;;5015637;28;20052;-69
2023/09/17 04:41:53;;;;;;;4.50;4.20;;;14.90;99.90;;;;;;5033480;28;20123;-64
2023/09/17 04:44:18;;;;;;;5.30;4.90;;;14.90;99.90;;;;;;5033717;28;20068;-64
2023/09/17 04:46:44;;;;;;;5.85;5.45;;;14.80;99.90;;;;;;5015876;28;20044;-64
2023/09/17 04:49:10;;;;;;;6.22;5.72;;;14.80;99.90;;;;;;5015889;28;20040;-64
2023/09/17 04:51:35;;;;;;;5.68;5.28;;;14.80;99.90;;;;;;5033641;28;20095;-72
2023/09/17 04:54:02;;;;;;;5.72;5.32;;;14.80;99.90;;;;;;5015520;28;20048;-73
2023/09/17 04:56:29;;;;;;;5.75;5.32;;;14.80;99.90;;;;;;5033119;28;20144;-73
2023/09/17 04:58:54;;;;;;;6.70;6.10;;;14.80;99.90;;;;;;5015611;28;20038;-73
2023/09/17 05:01:20;;;;;;;5.40;5.00;;;14.90;99.90;;;;;;5033078;28;20128;-73
2023/09/17 05:03:48;;;;;;;6.15;5.55;;;14.90;99.90;;;;;;5015302;28;20045;-73
2023/09/17 05:06:17;;;;;;;5.18;4.88;;;15.20;99.90;;;;;;4998864;28;20041;-73
2023/09/17 05:08:42;;;;;;;5.70;5.30;;;14.90;99.90;;;;;;5032885;28;20037;-73
2023/09/17 05:11:08;;;;;;;6.57;6.07;;;15.20;99.90;;;;;;5015170;28;20125;-73
2023/09/17 05:13:34;;;;;;;5.80;5.40;;;15.70;99.90;;;;;;4998744;28;20046;-72
2023/09/17 05:16:02;;;;;;;5.78;5.28;;;15.10;99.90;;;;;;5015009;28;20429;-73
2023/09/17 05:18:27;;;;;;;6.30;5.85;;;15.00;99.90;;;;;;5015126;28;20045;-72
2023/09/17 05:20:54;;;;;;;5.95;5.32;;;15.00;99.90;;;;;;5015136;28;20401;-72
2023/09/17 05:23:23;;;;;;;6.03;5.60;;;15.00;99.90;;;;;;5014615;28;20045;-74
2023/09/17 05:25:50;;;;;;;5.72;5.32;;;15.00;99.90;;;;;;5015073;28;20037;-72
2023/09/17 05:28:16;;;;;;;6.30;5.85;;;15.10;99.90;;;;;;5032613;28;20120;-72
2023/09/17 05:30:41;;;;;;;6.35;5.85;;;16.30;99.90;;;;;;5014971;28;20030;-72
2023/09/17 05:33:07;;;;;;;6.40;5.90;;;16.40;99.90;;;;;;5014989;28;20559;-71
2023/09/17 05:35:34;;;;;;;6.65;6.15;;;15.10;99.90;;;;;;5014889;28;20485;-71
2023/09/17 05:38:00;;;;;;;6.13;5.63;;;15.10;99.90;;;;;;5014971;28;20092;-73
2023/09/17 05:40:27;;;;;;;6.25;5.65;;;15.20;99.90;;;;;;4998877;28;20061;-72
2023/09/17 05:42:52;;;;;;;5.47;5.00;;;15.20;99.90;;;;;;5014925;28;20091;-72
2023/09/17 05:45:18;;;;;;;5.55;5.15;;;15.20;99.90;;;;;;5015151;28;20037;-72
2023/09/17 05:47:44;;;;;;;5.68;5.28;;;15.20;99.90;;;;;;4998702;28;20079;-72
2023/09/17 05:50:12;;;;;;;5.65;5.25;;;15.30;99.90;;;;;;4998646;28;20037;-72
2023/09/17 05:52:38;;;;;;;5.65;5.25;;;15.20;99.90;;;;;;5014883;28;20076;-66
2023/09/17 05:55:04;;;;;;;5.45;5.05;;;15.30;99.90;;;;;;5032690;28;20041;-65
2023/09/17 05:57:31;;;;;;;5.97;5.57;;;15.30;99.90;;;;;;5015062;28;20504;-65
2023/09/17 05:59:58;;;;;;;6.35;5.85;;;15.30;99.90;;;;;;5015007;28;20431;-65
2023/09/17 06:02:24;;;;;;;5.75;5.35;;;15.30;99.90;;;;;;5032800;28;20129;-73
2023/09/17 06:04:53;;;;;;;5.70;5.20;;;15.40;99.90;;;;;;5015017;28;20047;-74
2023/09/17 06:07:19;;;;;;;5.70;5.30;;;15.40;99.90;;;;;;5014966;28;20049;-75
2023/09/17 06:09:45;;;;;;;5.53;5.13;;;15.70;99.90;;;;;;5014735;28;20120;-71
2023/09/17 06:12:12;;;;;;;6.20;5.70;;;15.40;99.90;;;;;;5032322;28;20168;-72
2023/09/17 06:14:37;;;;;;;5.97;5.57;;;15.50;99.90;;;;;;5032568;28;20041;-72
2023/09/17 06:17:03;;;;;;;5.35;4.95;;;15.50;99.90;;;;;;5014529;28;20516;-73
2023/09/17 06:19:29;;;;;;;5.78;5.25;;;16.20;99.90;;;;;;4998406;28;20045;-73
2023/09/17 06:21:55;;;;;;;5.70;5.20;;;15.60;99.90;;;;;;5014823;28;20045;-73
2023/09/17 06:24:20;;;;;;;5.07;4.68;;;15.60;99.90;;;;;;5014519;28;20408;-73
2023/09/17 06:26:46;;;;;;;6.03;5.53;;;16.00;99.90;;;;;;5032098;28;20404;-73
2023/09/17 06:29:12;;;;;;;5.75;5.35;;;16.40;99.90;;;;;;5015133;28;20052;-73
2023/09/17 06:31:38;;;;;;;5.47;5.07;;;15.70;99.90;;;;;;4998315;28;20052;-73
2023/09/17 06:34:04;;;;;;;6.00;5.60;;;15.80;99.90;;;;;;5014799;28;20042;-73
2023/09/17 06:36:30;;;;;;;5.63;5.22;;;15.80;99.90;;;;;;5034926;28;20087;-74
2023/09/17 06:38:55;;;;;;;5.55;5.15;;;15.80;99.90;;;;;;5018166;28;20482;-74
2023/09/17 06:41:21;;;;;;;6.00;5.50;;;15.90;99.90;;;;;;5035598;28;20037;-73
2023/09/17 06:43:47;;;;;;;5.75;5.35;;;15.90;99.90;;;;;;5001560;28;20053;-74
2023/09/17 06:46:12;;;;;;;5.28;4.88;;;16.00;99.90;;;;;;5035798;28;20041;-75
2023/09/17 06:48:38;;;;;;;5.25;4.85;;;16.00;99.90;;;;;;5035424;28;20447;-74
2023/09/17 06:51:03;;;;;;;5.05;4.65;;;16.00;99.90;;;;;;5017953;28;20083;-74
2023/09/17 06:53:29;;;;;;;5.40;5.00;;;16.70;99.90;;;;;;5001221;28;20090;-74
2023/09/17 06:55:56;;;;;;;5.47;5.07;;;16.10;99.90;;;;;;5017758;28;20044;-70
2023/09/17 06:58:22;;;;;;;5.93;5.43;;;16.20;99.90;;;;;;5017786;28;20053;-71
2023/09/17 07:00:47;;;;;;;4.88;4.57;;;16.20;99.90;;;;;;5017405;28;20053;-72
2023/09/17 07:03:13;;;;;;;6.35;5.80;;;16.30;99.90;;;;;;5017776;28;20505;-75
2023/09/17 07:05:40;;;;;;;5.78;5.38;;;16.30;99.90;;;;;;5001270;28;20037;-74
2023/09/17 07:08:06;;;;;;;5.13;4.72;;;16.40;99.90;;;;;;5001244;28;20504;-72
2023/09/17 07:10:32;;;;;;;5.25;4.85;;;16.40;99.90;;;;;;5017330;28;20049;-70
2023/09/17 07:12:58;;;;;;;5.05;4.65;;;16.50;99.90;;;;;;5035323;28;20189;-72
2023/09/17 07:15:25;;;;;;;5.47;5.07;;;16.50;99.90;;;;;;5017387;28;20134;-72
2023/09/17 07:17:52;;;;;;;5.03;4.63;;;16.50;99.90;;;;;;5034822;28;20092;-70
2023/09/17 07:20:19;;;;;;;4.82;4.53;;;16.40;99.90;;;;;;5017346;28;20049;-69
2023/09/17 07:22:46;;;;;;;4.70;4.35;;;16.60;99.90;;;;;;5035003;28;20041;-69
2023/09/17 07:25:12;;;;;;;4.90;4.57;;;16.60;99.90;;;;;;5017231;28;20053;-69
2023/09/17 07:27:38;;;;;;;5.40;5.00;;;16.60;99.90;;;;;;5016906;28;20041;-70
2023/09/17 07:30:05;;;;;;;5.20;4.80;;;16.80;99.90;;;;;;5016796;28;20053;-68
2023/09/17 07:32:31;;;;;;;4.90;4.50;;;16.70;99.90;;;;;;5034706;28;20049;-68
2023/09/17 07:34:57;;;;;;;4.65;4.35;;;16.80;99.90;;;;;;5017065;28;20104;-67
2023/09/17 07:37:23;;;;;;;4.53;4.22;;;16.90;99.90;;;;;;5034686;28;20083;-68
2023/09/17 07:39:55;;;;;;;4.50;4.20;;;16.90;99.90;;;;;;5034660;28;20038;-66
2023/09/17 07:42:21;;;;;;;5.13;4.72;;;16.90;99.90;;;;;;5034602;28;20397;-68
2023/09/17 07:44:46;;;;;;;4.75;4.35;;;16.90;99.90;;;;;;5016200;28;20037;-67
2023/09/17 07:47:12;;;;;;;5.50;5.00;;;17.00;99.90;;;;;;5033976;28;20040;-66
2023/09/17 07:49:38;;;;;;;4.82;4.53;;;17.00;99.90;;;;;;5016442;28;20397;-65
2023/09/17 07:52:05;;;;;;;4.80;4.45;;;17.10;99.90;;;;;;5034313;28;20414;-65
2023/09/17 07:54:36;;;;;;;5.28;4.88;;;17.20;99.90;;;;;;5016656;28;20041;-65
2023/09/17 07:57:04;;;;;;;4.82;4.47;;;17.20;99.90;;;;;;5016348;28;20040;-65
2023/09/17 07:59:30;;;;;;;4.90;4.53;;;17.30;99.90;;;;;;5034049;28;20116;-65
2023/09/17 08:01:56;;;;;;;4.70;4.35;;;17.40;99.90;;;;;;5034010;28;20041;-64
2023/09/17 08:04:22;;;;;;;4.70;4.30;;;17.30;99.90;;;;;;5033971;28;20041;-65
2023/09/17 08:06:49;;;;;;;4.60;4.20;;;17.40;99.90;;;;;;5034217;28;20124;-66
2023/09/17 08:09:17;;;;;;;4.13;3.83;;;17.50;99.90;;;;;;5016230;28;20507;-66
2023/09/17 08:11:43;;;;;;;4.25;3.95;;;17.50;99.90;;;;;;5034126;28;20110;-73
2023/09/17 08:14:10;;;;;;;3.90;3.60;;;;;;;;;;5016302;28;20033;-74
2023/09/17 08:16:38;;;;;;;3.88;3.58;;;17.70;99.90;;;;;;5033456;28;20497;-73
2023/09/17 08:19:04;;;;;;;4.18;3.80;;;18.90;99.90;;;;;;5016192;28;20053;-74
2023/09/17 08:21:32;;;;;;;3.55;3.25;;;17.80;99.90;;;;;;5016088;28;20045;-66
2023/09/17 08:23:58;;;;;;;3.60;3.30;;;17.80;99.90;;;;;;5016227;28;20485;-66
2023/09/17 08:26:27;;;;;;;3.35;3.15;;;17.80;99.90;;;;;;4999834;28;20037;-65
2023/09/17 08:28:57;;;;;;;3.70;3.40;;;17.60;99.90;;;;;;5033656;28;20103;-65
2023/09/17 08:31:25;;;;;;;3.33;3.13;;;17.90;99.90;;;;;;5015744;28;20048;-65
2023/09/17 08:33:51;;;;;;;3.67;3.45;;;17.90;99.90;;;;;;5032318;28;20045;-67
2023/09/17 08:36:19;;;;;;;3.83;3.53;;;18.40;99.90;;;;;;5015854;28;20398;-65
2023/09/17 08:38:45;;;;;;;3.15;2.85;;;17.90;99.90;;;;;;5033601;28;20049;-65
2023/09/17 08:41:12;;;;;;;3.70;3.40;;;17.90;99.90;;;;;;5016128;28;20060;-65
2023/09/17 08:43:39;;;;;;;3.78;3.47;;;17.90;99.90;;;;;;5015916;28;20045;-66
2023/09/17 08:46:04;;;;;;;4.00;3.70;;;17.90;99.90;;;;;;4999182;28;20053;-67
2023/09/17 08:48:30;;;;;;;3.60;3.30;;;17.90;99.90;;;;;;5033221;28;20068;-66
2023/09/17 08:50:58;;;;;;;3.67;3.38;;;18.10;99.90;;;;;;5015468;28;20489;-67
2023/09/17 08:53:30;;;;;;;3.10;2.90;;;18.00;99.90;;;;;;5033467;28;20120;-66
2023/09/17 08:56:00;;;;;;;3.45;3.17;;;18.10;99.90;;;;;;5015429;28;20364;-66
2023/09/17 08:58:50;;;;;;;3.45;3.15;;;18.10;99.90;;;;;;5014930;28;20536;-66
2023/09/17 09:01:17;;;;;;;3.55;3.28;;;18.30;99.90;;;;;;5032856;28;20044;-65
2023/09/17 09:03:44;;;;;;;3.08;2.88;;;18.40;99.90;;;;;;4999157;28;20469;-66
2023/09/17 09:06:11;;;;;;;3.45;3.17;;;18.50;99.90;;;;;;5015200;28;20045;-66
2023/09/17 09:08:38;;;;;;;3.30;3.00;;;18.60;99.90;;;;;;5014958;28;20053;-66
2023/09/17 09:11:10;;;;;;;3.20;2.90;;;18.50;99.90;;;;;;5032642;28;20043;-66
2023/09/17 09:13:40;;;;;;;2.63;2.42;;;19.10;99.90;;;;;;5032960;28;20323;-66
2023/09/17 09:16:06;;;;;;;3.35;3.08;;;18.60;99.90;;;;;;5015106;28;20440;-66
2023/09/17 09:18:35;;;;;;;3.40;3.17;;;18.60;99.90;;;;;;5032731;28;20085;-66
2023/09/17 09:21:08;;;;;;;3.17;2.95;;;18.70;99.90;;;;;;5032685;28;20041;-66
2023/09/17 09:23:35;;;;;;;3.50;3.20;;;18.70;99.90;;;;;;5014970;28;20053;-66
2023/09/17 09:26:01;;;;;;;3.67;3.38;;;18.80;99.90;;;;;;5032497;28;20046;-67
2023/09/17 09:28:30;;;;;;;3.50;3.20;;;18.70;99.90;;;;;;5032861;28;20048;-66
2023/09/17 09:30:57;;;;;;;3.30;3.10;;;18.70;99.90;;;;;;5032737;28;20460;-66
2023/09/17 09:33:24;;;;;;;3.97;3.65;;;18.80;99.90;;;;;;5014398;28;20049;-68
2023/09/17 09:35:49;;;;;;;4.15;3.85;;;18.80;99.90;;;;;;5032444;28;20045;-68
2023/09/17 09:38:18;;;;;;;3.47;3.17;;;18.70;99.90;;;;;;5032767;28;20048;-68
2023/09/17 09:40:44;;;;;;;3.55;3.33;;;18.80;99.90;;;;;;5032822;28;20115;-68
2023/09/17 09:43:30;;;;;;;4.00;3.70;;;18.90;99.90;;;;;;5014783;28;20045;-68
2023/09/17 09:46:04;;;;;;;4.15;3.85;;;19.00;99.90;;;;;;5032370;28;20041;-68
2023/09/17 09:48:39;;;;;;;3.80;3.50;;;18.90;99.90;;;;;;5015078;28;20393;-69
2023/09/17 09:51:06;;;;;;;4.43;4.10;;;19.20;99.90;;;;;;5032649;28;20034;-68
2023/09/17 09:53:31;;;;;;;3.80;3.50;;;19.00;99.90;;;;;;5015066;28;20124;-68
2023/09/17 09:56:03;;;;;;;4.25;3.95;;;19.10;99.90;;;;;;5032600;28;20172;-68
2023/09/17 09:58:34;;;;;;;4.63;4.22;;;19.10;99.90;;;;;;5032544;28;20033;-68
2023/09/17 10:01:04;;;;;;;4.22;3.92;;;19.10;99.90;;;;;;5014775;28;20046;-68
2023/09/17 10:03:30;;;;;;;4.35;4.03;;;19.10;99.90;;;;;;5032270;28;20120;-68
2023/09/17 10:06:04;;;;;;;4.47;4.07;;;19.10;99.90;;;;;;5014951;28;20140;-70
2023/09/17 10:08:30;;;;;;;4.35;4.05;;;19.10;99.90;;;;;;5014697;28;20041;-70
2023/09/17 10:10:55;;;;;;;4.38;4.07;;;19.10;99.90;;;;;;5035805;28;20409;-69
2023/09/17 10:13:21;;;;;;;3.92;3.63;;;19.10;99.90;;;;;;5035870;28;20079;-69
2023/09/17 10:15:47;;;;;;;4.03;3.72;;;20.10;99.90;;;;;;5001591;28;20045;-69
2023/09/17 10:18:14;;;;;;;3.97;3.67;;;19.00;99.90;;;;;;5036039;28;20041;-65
2023/09/17 10:20:42;;;;;;;3.08;2.83;;;19.10;99.90;;;;;;5036099;28;20041;-65
2023/09/17 10:23:09;;;;;;;2.72;2.53;;;19.10;99.90;;;;;;5001962;28;20052;-65
2023/09/17 10:25:37;;;;;;;2.85;2.65;;;19.20;99.90;;;;;;5035936;28;20081;-65
2023/09/17 10:28:02;;;;;;;3.03;2.80;;;19.20;99.90;;;;;;5035759;28;20444;-67
2023/09/17 10:30:30;;;;;;;2.17;2.03;;;19.30;99.90;;;;;;5035651;28;20025;-65
2023/09/17 10:32:58;;;;;;;2.53;2.33;;;19.20;99.90;;;;;;5035762;28;20045;-65
2023/09/17 10:35:24;;;;;;;2.55;2.30;;;19.20;99.90;;;;;;5035593;28;20088;-65
2023/09/17 10:37:51;;;;;;;3.05;2.22;;;19.20;99.90;;;;;;5018107;28;20060;-65
2023/09/17 10:40:17;;;;;;;2.40;2.20;;;18.90;99.90;;;;;;5035398;28;20037;-66
2023/09/17 10:42:44;;;;;;;2.60;2.40;;;19.10;99.90;;;;;;5035365;28;20034;-64
2023/09/17 10:45:10;;;;;;;3.10;2.42;;;19.30;99.90;;;;;;5035588;28;20405;-65
2023/09/17 10:47:40;;;;;;;2.42;2.20;;;19.40;99.90;;;;;;5017501;28;20437;-68
2023/09/17 10:50:07;;;;;;;2.40;2.22;;;19.60;99.90;;;;;;5017305;28;20048;-66
2023/09/17 10:52:34;;;;;;;2.78;2.58;;;19.80;99.90;;;;;;5035488;28;20045;-66
2023/09/17 10:55:00;;;;;;;2.63;2.42;;;20.40;99.90;;;;;;5017688;28;20538;-66
2023/09/17 10:57:40;;;;;;;3.22;2.92;;;20.20;99.90;;;;;;5017685;28;20120;-65
2023/09/17 11:00:13;;;;;;;2.50;2.30;;;20.50;99.90;;;;;;5035302;28;20041;-68
2023/09/17 11:02:45;;;;;;;3.03;2.75;;;20.60;99.90;;;;;;5001170;28;20046;-67
2023/09/17 11:05:14;;;;;;;2.40;2.20;;;20.50;99.90;;;;;;5035394;28;20061;-66
2023/09/17 11:07:42;;;;;;;2.50;2.30;;;20.80;99.90;;;;;;5017438;28;20077;-68
2023/09/17 11:10:11;;;;;;;3.03;2.67;;;20.40;99.90;;;;;;5017398;28;20038;-67
2023/09/17 11:12:38;;;;;;;2.63;2.42;;;20.40;99.90;;;;;;5017648;28;20049;-69
2023/09/17 11:15:10;;;;;;;4.93;2.75;;;20.20;99.90;;;;;;5017628;28;20120;-73
2023/09/17 11:17:37;;;;;;;2.83;2.63;;;20.40;99.90;;;;;;5035226;28;20052;-67
2023/09/17 11:20:12;;;;;;;3.33;3.08;;;20.30;99.90;;;;;;5017411;28;20543;-68
2023/09/17 11:22:39;;;;;;;2.70;2.50;;;20.10;99.90;;;;;;5016837;28;20077;-66
2023/09/17 11:25:07;;;;;;;3.47;3.17;;;19.90;99.90;;;;;;5035088;28;20033;-69
2023/09/17 11:27:49;;;;;;;3.70;3.40;;;19.90;99.90;;;;;;5017263;28;20128;-69
2023/09/17 11:30:16;;;;;;;3.47;3.08;;;19.80;99.90;;;;;;5034943;28;20103;-69
2023/09/17 11:32:55;;;;;;;2.85;2.65;;;19.80;99.90;;;;;;5034914;28;20045;-69
2023/09/17 11:35:22;;;;;;;3.00;2.70;;;19.90;99.90;;;;;;5034726;28;20120;-69
2023/09/17 11:37:48;;;;;;;3.30;3.00;;;20.00;99.90;;;;;;5016623;28;20471;-71
2023/09/17 11:40:15;;;;;;;2.90;2.70;;;20.10;99.90;;;;;;5034522;28;20077;-71
2023/09/17 11:42:41;;;;;;;3.35;3.05;;;20.40;99.90;;;;;;5034733;28;20052;-68
2023/09/17 11:45:08;;;;;;;3.35;3.15;;;20.70;99.90;;;;;;5034665;28;20481;-65
2023/09/17 11:47:35;;;;;;;2.95;2.75;;;20.90;99.90;;;;;;5034615;28;20143;-66
2023/09/17 11:50:01;;;;;;;3.45;3.15;;;21.00;99.90;;;;;;5034450;28;20076;-67
2023/09/17 11:52:27;;;;;;;2.70;2.50;;;21.20;99.90;;;;;;5034535;28;20037;-67
2023/09/17 11:54:58;;;;;;;3.17;2.95;;;21.30;99.90;;;;;;5034462;28;20140;-68
2023/09/17 11:57:24;;;;;;;;;;;21.30;99.90;;;;;;5034800;28;20084;-65
2023/09/17 11:59:49;;;;;;;3.22;2.97;;;21.40;99.70;;;;;;5034381;28;19920;-65
2023/09/17 12:02:17;;;;;;;3.53;3.22;;;21.40;99.90;;;;;;5016677;28;20213;-65
2023/09/17 12:04:43;;;;;;;3.80;3.50;;;21.50;99.90;;;;;;5033886;28;20041;-65
2023/09/17 12:07:11;;;;;;;3.35;3.08;;;21.40;99.90;;;;;;5016781;28;20049;-64
2023/09/17 12:12:13;;;;;;;3.38;3.17;;;21.20;99.90;;;;;;5034102;28;20516;-69
2023/09/17 12:14:40;;;;;;;2.88;2.67;;;21.20;99.90;;;;;;5033747;28;20080;-70
2023/09/17 12:17:06;;;;;;;3.63;3.33;;;21.20;99.90;;;;;;5033619;28;20041;-68
2023/09/17 12:19:31;;;;;;;3.58;3.28;;;21.30;99.90;;;;;;5033533;28;20057;-68
2023/09/17 12:21:59;;;;;;;3.50;3.20;;;21.30;99.90;;;;;;5016001;28;20489;-68
2023/09/17 12:24:38;;;;;;;3.70;3.40;;;21.30;99.90;;;;;;5033886;28;20052;-68
2023/09/17 12:29:39;;;;;;;3.33;3.13;;;21.40;99.90;;;;;;5033684;28;20106;-68
2023/09/17 12:32:06;;;;;;;3.28;2.97;;;21.50;99.50;;;;;;5033516;28;20038;-68
2023/09/17 12:34:36;;;;;;;3.53;3.30;;;21.50;99.80;;;;;;5015472;28;20057;-66
2023/09/17 12:37:02;;;;;;;3.10;2.90;;;21.50;98.50;;;;;;5015783;28;20049;-66
2023/09/17 12:39:28;;;;;;;3.50;3.20;;;21.50;99.70;;;;;;5015663;28;20132;-66
2023/09/17 12:41:54;;;;;;;3.10;2.78;;;21.80;99.90;;;;;;5033250;28;20033;-66
2023/09/17 12:44:19;;;;;;;3.40;3.10;;;21.50;99.90;;;;;;5033589;28;20039;-66
2023/09/17 12:46:46;;;;;;;3.58;3.28;;;21.50;99.90;;;;;;5033600;28;20095;-68
2023/09/17 12:49:11;;;;;;;3.15;2.95;;;21.50;99.90;;;;;;5033491;28;20041;-69
2023/09/17 12:51:37;;;;;;;3.40;3.20;;;21.50;99.90;;;;;;5015782;28;20571;-68
2023/09/17 12:54:04;;;;;;;3.65;3.35;;;22.00;99.90;;;;;;5033086;28;20088;-68